sensor_id;sensor_type;location;lat;lon;timestamp;temperature;humidity
14119;DHT22;7138;49.246;9.100;2023-08-12T00:00:29;18.20;99.90
14119;DHT22;7138;49.246;9.100;2023-08-12T00:02:55;18.30;99.90
14119;DHT22;7138;49.246;9.100;2023-08-12T00:05:22;18.30;99.90
14119;DHT22;7138;49.246;9.100;2023-08-12T00:07:48;18.20;99.90
14119;DHT22;7138;49.246;9.100;2023-08-12T00:10:15;18.20;99.90
14119;DHT22;7138;49.246;9.100;2023-08-12T00:12:41;18.20;99.90
14119;DHT22;7138;49.246;9.100;2023-08-12T00:15:08;18.20;99.90
14119;DHT22;7138;49.246;9.100;2023-08-12T00:17:36;18.20;99.90
14119;DHT22;7138;49.246;9.100;2023-08-12T00:20:03;18.20;99.90
14119;DHT22;7138;49.246;9.100;2023-08-12T00:22:37;18.20;99.90
14119;DHT22;7138;49.246;9.100;2023-08-12T00:25:04;18.20;99.90
14119;DHT22;7138;49.246;9.100;2023-08-12T00:27:31;18.20;99.90
14119;DHT22;7138;49.246;9.100;2023-08-12T00:29:57;18.20;99.90
14119;DHT22;7138;49.246;9.100;2023-08-12T00:32:23;18.20;99.90
14119;DHT22;7138;49.246;9.100;2023-08-12T00:34:48;18.10;99.90
14119;DHT22;7138;49.246;9.100;2023-08-12T00:37:14;18.20;99.90
14119;DHT22;7138;49.246;9.100;2023-08-12T00:39:42;18.20;99.90
14119;DHT22;7138;49.246;9.100;2023-08-12T00:42:07;18.20;99.90
14119;DHT22;7138;49.246;9.100;2023-08-12T00:44:33;18.20;99.90
14119;DHT22;7138;49.246;9.100;2023-08-12T00:46:59;18.20;99.90
14119;DHT22;7138;49.246;9.100;2023-08-12T00:49:26;18.20;99.90
14119;DHT22;7138;49.246;9.100;2023-08-12T00:51:53;18.20;99.90
14119;DHT22;7138;49.246;9.100;2023-08-12T00:54:21;18.20;99.90
14119;DHT22;7138;49.246;9.100;2023-08-12T00:56:50;18.10;99.90
14119;DHT22;7138;49.246;9.100;2023-08-12T00:59:19;18.10;99.90
14119;DHT22;7138;49.246;9.100;2023-08-12T01:01:47;18.10;99.90
14119;DHT22;7138;49.246;9.100;2023-08-12T01:04:13;18.00;99.90
14119;DHT22;7138;49.246;9.100;2023-08-12T01:06:39;17.90;99.90
14119;DHT22;7138;49.246;9.100;2023-08-12T01:09:06;17.90;99.90
14119;DHT22;7138;49.246;9.100;2023-08-12T01:11:36;17.90;99.90
14119;DHT22;7138;49.246;9.100;2023-08-12T01:14:14;17.90;99.90
14119;DHT22;7138;49.246;9.100;2023-08-12T01:16:51;17.80;99.90
14119;DHT22;7138;49.246;9.100;2023-08-12T01:19:30;17.80;99.90
14119;DHT22;7138;49.246;9.100;2023-08-12T01:22:00;17.80;99.90
14119;DHT22;7138;49.246;9.100;2023-08-12T01:24:33;17.80;99.90
14119;DHT22;7138;49.246;9.100;2023-08-12T01:27:01;17.80;99.90
14119;DHT22;7138;49.246;9.100;2023-08-12T01:29:27;17.80;99.90
14119;DHT22;7138;49.246;9.100;2023-08-12T01:31:57;17.80;99.90
14119;DHT22;7138;49.246;9.100;2023-08-12T01:34:37;17.80;99.90
14119;DHT22;7138;49.246;9.100;2023-08-12T01:37:12;17.80;99.90
14119;DHT22;7138;49.246;9.100;2023-08-12T01:39:45;17.80;99.90
14119;DHT22;7138;49.246;9.100;2023-08-12T01:42:13;17.80;99.90
14119;DHT22;7138;49.246;9.100;2023-08-12T01:44:40;17.90;99.90
14119;DHT22;7138;49.246;9.100;2023-08-12T01:47:07;17.90;99.90
14119;DHT22;7138;49.246;9.100;2023-08-12T01:49:34;17.90;99.90
14119;DHT22;7138;49.246;9.100;2023-08-12T01:52:00;17.90;99.90
14119;DHT22;7138;49.246;9.100;2023-08-12T01:54:26;17.90;99.90
14119;DHT22;7138;49.246;9.100;2023-08-12T01:56:53;17.90;99.90
14119;DHT22;7138;49.246;9.100;2023-08-12T01:59:19;17.90;99.90
14119;DHT22;7138;49.246;9.100;2023-08-12T02:01:45;17.90;99.90
14119;DHT22;7138;49.246;9.100;2023-08-12T02:04:10;17.90;99.90
14119;DHT22;7138;49.246;9.100;2023-08-12T02:06:36;18.00;99.90
14119;DHT22;7138;49.246;9.100;2023-08-12T02:09:02;18.00;99.90
14119;DHT22;7138;49.246;9.100;2023-08-12T02:11:28;18.10;99.90
14119;DHT22;7138;49.246;9.100;2023-08-12T02:13:55;18.00;99.90
14119;DHT22;7138;49.246;9.100;2023-08-12T02:16:21;18.00;99.90
14119;DHT22;7138;49.246;9.100;2023-08-12T02:18:47;18.00;99.90
14119;DHT22;7138;49.246;9.100;2023-08-12T02:21:13;18.10;99.90
14119;DHT22;7138;49.246;9.100;2023-08-12T02:23:39;18.10;99.90
14119;DHT22;7138;49.246;9.100;2023-08-12T02:26:05;18.10;99.90
14119;DHT22;7138;49.246;9.100;2023-08-12T02:28:30;18.00;99.90
14119;DHT22;7138;49.246;9.100;2023-08-12T02:30:57;18.10;99.90
14119;DHT22;7138;49.246;9.100;2023-08-12T02:33:23;18.10;99.90
14119;DHT22;7138;49.246;9.100;2023-08-12T02:35:52;18.10;99.90
14119;DHT22;7138;49.246;9.100;2023-08-12T02:38:19;18.10;99.90
14119;DHT22;7138;49.246;9.100;2023-08-12T02:40:47;18.10;99.90
14119;DHT22;7138;49.246;9.100;2023-08-12T02:43:14;18.10;99.90
14119;DHT22;7138;49.246;9.100;2023-08-12T02:45:40;18.10;99.90
14119;DHT22;7138;49.246;9.100;2023-08-12T02:48:08;18.20;99.90
14119;DHT22;7138;49.246;9.100;2023-08-12T02:50:34;18.10;99.90
14119;DHT22;7138;49.246;9.100;2023-08-12T02:53:00;18.20;99.90
14119;DHT22;7138;49.246;9.100;2023-08-12T02:55:26;18.20;99.90
14119;DHT22;7138;49.246;9.100;2023-08-12T02:57:52;18.30;99.90
14119;DHT22;7138;49.246;9.100;2023-08-12T03:00:18;18.30;99.90
14119;DHT22;7138;49.246;9.100;2023-08-12T03:02:44;18.20;99.90
14119;DHT22;7138;49.246;9.100;2023-08-12T03:05:11;18.20;99.90
14119;DHT22;7138;49.246;9.100;2023-08-12T03:07:37;18.20;99.90
14119;DHT22;7138;49.246;9.100;2023-08-12T03:10:03;18.20;99.90
14119;DHT22;7138;49.246;9.100;2023-08-12T03:12:30;18.20;99.90
14119;DHT22;7138;49.246;9.100;2023-08-12T03:14:56;18.20;99.90
14119;DHT22;7138;49.246;9.100;2023-08-12T03:17:21;18.20;99.90
14119;DHT22;7138;49.246;9.100;2023-08-12T03:19:47;18.20;99.90
14119;DHT22;7138;49.246;9.100;2023-08-12T03:22:16;18.10;99.90
14119;DHT22;7138;49.246;9.100;2023-08-12T03:24:41;18.10;99.90
14119;DHT22;7138;49.246;9.100;2023-08-12T03:27:07;18.20;99.90
14119;DHT22;7138;49.246;9.100;2023-08-12T03:29:33;18.20;99.90
14119;DHT22;7138;49.246;9.100;2023-08-12T03:31:59;18.10;99.90
14119;DHT22;7138;49.246;9.100;2023-08-12T03:34:25;18.00;99.90
14119;DHT22;7138;49.246;9.100;2023-08-12T03:36:53;18.00;99.90
14119;DHT22;7138;49.246;9.100;2023-08-12T03:39:20;18.00;99.90
14119;DHT22;7138;49.246;9.100;2023-08-12T03:41:46;18.00;99.90
14119;DHT22;7138;49.246;9.100;2023-08-12T03:44:12;18.00;99.90
14119;DHT22;7138;49.246;9.100;2023-08-12T03:46:38;18.00;99.90
14119;DHT22;7138;49.246;9.100;2023-08-12T03:49:04;18.00;99.90
14119;DHT22;7138;49.246;9.100;2023-08-12T03:51:29;18.00;99.90
14119;DHT22;7138;49.246;9.100;2023-08-12T03:53:55;18.10;99.90
14119;DHT22;7138;49.246;9.100;2023-08-12T03:56:24;18.00;99.90
14119;DHT22;7138;49.246;9.100;2023-08-12T03:58:49;18.00;99.90
14119;DHT22;7138;49.246;9.100;2023-08-12T04:01:16;17.90;99.90
14119;DHT22;7138;49.246;9.100;2023-08-12T04:03:42;18.00;99.90
14119;DHT22;7138;49.246;9.100;2023-08-12T04:06:08;18.00;99.90
14119;DHT22;7138;49.246;9.100;2023-08-12T04:08:34;18.00;99.90
14119;DHT22;7138;49.246;9.100;2023-08-12T04:11:00;18.10;99.90
14119;DHT22;7138;49.246;9.100;2023-08-12T04:13:27;18.10;99.90
14119;DHT22;7138;49.246;9.100;2023-08-12T04:15:53;18.10;99.90
14119;DHT22;7138;49.246;9.100;2023-08-12T04:18:19;18.10;99.90
14119;DHT22;7138;49.246;9.100;2023-08-12T04:20:45;18.00;99.90
14119;DHT22;7138;49.246;9.100;2023-08-12T04:23:12;18.00;99.90
14119;DHT22;7138;49.246;9.100;2023-08-12T04:25:38;18.10;99.90
14119;DHT22;7138;49.246;9.100;2023-08-12T04:28:04;18.10;99.90
14119;DHT22;7138;49.246;9.100;2023-08-12T04:30:32;18.20;99.90
14119;DHT22;7138;49.246;9.100;2023-08-12T04:32:58;18.10;99.90
14119;DHT22;7138;49.246;9.100;2023-08-12T04:35:24;18.00;99.90
14119;DHT22;7138;49.246;9.100;2023-08-12T04:37:50;18.00;99.90
14119;DHT22;7138;49.246;9.100;2023-08-12T04:40:15;18.00;99.90
14119;DHT22;7138;49.246;9.100;2023-08-12T04:42:41;18.00;99.90
14119;DHT22;7138;49.246;9.100;2023-08-12T04:45:08;18.10;99.90
14119;DHT22;7138;49.246;9.100;2023-08-12T04:47:36;18.10;99.90
14119;DHT22;7138;49.246;9.100;2023-08-12T04:50:03;18.20;99.90
14119;DHT22;7138;49.246;9.100;2023-08-12T04:52:29;18.20;99.90
14119;DHT22;7138;49.246;9.100;2023-08-12T04:54:55;18.10;99.90
14119;DHT22;7138;49.246;9.100;2023-08-12T04:57:20;18.20;99.90
14119;DHT22;7138;49.246;9.100;2023-08-12T04:59:46;18.20;99.90
14119;DHT22;7138;49.246;9.100;2023-08-12T05:02:12;18.20;99.90
14119;DHT22;7138;49.246;9.100;2023-08-12T05:04:40;18.20;99.90
14119;DHT22;7138;49.246;9.100;2023-08-12T05:07:06;18.30;99.90
14119;DHT22;7138;49.246;9.100;2023-08-12T05:09:31;18.40;99.90
14119;DHT22;7138;49.246;9.100;2023-08-12T05:11:58;18.40;99.90
14119;DHT22;7138;49.246;9.100;2023-08-12T05:14:23;18.30;99.90
14119;DHT22;7138;49.246;9.100;2023-08-12T05:16:49;18.30;99.90
14119;DHT22;7138;49.246;9.100;2023-08-12T05:19:15;18.30;99.90
14119;DHT22;7138;49.246;9.100;2023-08-12T05:21:42;18.40;99.90
14119;DHT22;7138;49.246;9.100;2023-08-12T05:24:08;18.50;99.90
14119;DHT22;7138;49.246;9.100;2023-08-12T05:26:36;18.50;99.90
14119;DHT22;7138;49.246;9.100;2023-08-12T05:29:02;18.50;99.90
14119;DHT22;7138;49.246;9.100;2023-08-12T05:31:29;18.50;99.90
14119;DHT22;7138;49.246;9.100;2023-08-12T05:33:55;18.60;99.90
14119;DHT22;7138;49.246;9.100;2023-08-12T05:36:20;18.60;99.90
14119;DHT22;7138;49.246;9.100;2023-08-12T05:38:48;18.60;99.90
14119;DHT22;7138;49.246;9.100;2023-08-12T05:41:13;18.60;99.90
14119;DHT22;7138;49.246;9.100;2023-08-12T05:43:39;18.50;99.90
14119;DHT22;7138;49.246;9.100;2023-08-12T05:46:05;18.70;99.90
14119;DHT22;7138;49.246;9.100;2023-08-12T05:48:31;18.70;99.90
14119;DHT22;7138;49.246;9.100;2023-08-12T05:50:57;18.60;99.90
14119;DHT22;7138;49.246;9.100;2023-08-12T05:53:23;18.70;99.90
14119;DHT22;7138;49.246;9.100;2023-08-12T05:55:50;18.80;99.90
14119;DHT22;7138;49.246;9.100;2023-08-12T05:58:16;18.80;99.90
14119;DHT22;7138;49.246;9.100;2023-08-12T06:00:42;18.90;99.90
14119;DHT22;7138;49.246;9.100;2023-08-12T06:03:10;19.00;99.90
14119;DHT22;7138;49.246;9.100;2023-08-12T06:05:37;19.10;99.90
14119;DHT22;7138;49.246;9.100;2023-08-12T06:08:03;19.10;99.90
14119;DHT22;7138;49.246;9.100;2023-08-12T06:10:29;19.10;99.90
14119;DHT22;7138;49.246;9.100;2023-08-12T06:12:56;19.20;99.90
14119;DHT22;7138;49.246;9.100;2023-08-12T06:15:22;19.30;99.90
14119;DHT22;7138;49.246;9.100;2023-08-12T06:17:48;19.20;99.90
14119;DHT22;7138;49.246;9.100;2023-08-12T06:20:14;19.00;99.90
14119;DHT22;7138;49.246;9.100;2023-08-12T06:22:40;19.00;99.90
14119;DHT22;7138;49.246;9.100;2023-08-12T06:25:06;19.20;99.90
14119;DHT22;7138;49.246;9.100;2023-08-12T06:27:33;19.70;99.90
14119;DHT22;7138;49.246;9.100;2023-08-12T06:30:00;20.70;99.90
14119;DHT22;7138;49.246;9.100;2023-08-12T06:32:26;20.70;99.90
14119;DHT22;7138;49.246;9.100;2023-08-12T06:34:52;20.90;99.90
14119;DHT22;7138;49.246;9.100;2023-08-12T06:37:17;20.80;99.90
14119;DHT22;7138;49.246;9.100;2023-08-12T06:39:43;20.80;99.90
14119;DHT22;7138;49.246;9.100;2023-08-12T06:42:09;21.00;99.90
14119;DHT22;7138;49.246;9.100;2023-08-12T06:44:35;21.00;99.90
14119;DHT22;7138;49.246;9.100;2023-08-12T06:47:02;20.70;99.90
14119;DHT22;7138;49.246;9.100;2023-08-12T06:49:28;20.70;99.90
14119;DHT22;7138;49.246;9.100;2023-08-12T06:51:53;20.80;99.90
14119;DHT22;7138;49.246;9.100;2023-08-12T06:54:19;20.90;99.90
14119;DHT22;7138;49.246;9.100;2023-08-12T06:56:48;21.40;99.90
14119;DHT22;7138;49.246;9.100;2023-08-12T06:59:14;22.00;99.90
14119;DHT22;7138;49.246;9.100;2023-08-12T07:01:40;21.90;99.90
14119;DHT22;7138;49.246;9.100;2023-08-12T07:04:07;22.30;99.90
14119;DHT22;7138;49.246;9.100;2023-08-12T07:06:33;23.30;99.90
14119;DHT22;7138;49.246;9.100;2023-08-12T07:08:59;23.50;99.90
14119;DHT22;7138;49.246;9.100;2023-08-12T07:11:25;23.90;99.90
14119;DHT22;7138;49.246;9.100;2023-08-12T07:13:50;24.40;99.90
14119;DHT22;7138;49.246;9.100;2023-08-12T07:16:16;24.90;99.90
14119;DHT22;7138;49.246;9.100;2023-08-12T07:18:42;24.50;99.90
14119;DHT22;7138;49.246;9.100;2023-08-12T07:21:09;25.20;99.90
14119;DHT22;7138;49.246;9.100;2023-08-12T07:23:35;24.60;99.90
14119;DHT22;7138;49.246;9.100;2023-08-12T07:26:01;23.50;99.90
14119;DHT22;7138;49.246;9.100;2023-08-12T07:28:27;23.30;99.90
14119;DHT22;7138;49.246;9.100;2023-08-12T07:30:53;23.60;99.90
14119;DHT22;7138;49.246;9.100;2023-08-12T07:33:19;23.60;99.90
14119;DHT22;7138;49.246;9.100;2023-08-12T07:35:47;23.50;99.90
14119;DHT22;7138;49.246;9.100;2023-08-12T07:38:14;23.30;99.90
14119;DHT22;7138;49.246;9.100;2023-08-12T07:40:40;23.30;99.90
14119;DHT22;7138;49.246;9.100;2023-08-12T07:43:06;23.80;99.90
14119;DHT22;7138;49.246;9.100;2023-08-12T07:45:32;23.70;99.90
14119;DHT22;7138;49.246;9.100;2023-08-12T07:47:58;23.60;99.90
14119;DHT22;7138;49.246;9.100;2023-08-12T07:50:24;23.60;99.90
14119;DHT22;7138;49.246;9.100;2023-08-12T07:52:50;23.60;99.90
14119;DHT22;7138;49.246;9.100;2023-08-12T07:55:17;24.00;99.90
14119;DHT22;7138;49.246;9.100;2023-08-12T07:57:44;24.70;99.90
14119;DHT22;7138;49.246;9.100;2023-08-12T08:00:11;24.60;99.90
14119;DHT22;7138;49.246;9.100;2023-08-12T08:02:37;24.70;99.90
14119;DHT22;7138;49.246;9.100;2023-08-12T08:05:04;24.70;99.90
14119;DHT22;7138;49.246;9.100;2023-08-12T08:07:31;25.30;99.90
14119;DHT22;7138;49.246;9.100;2023-08-12T08:09:57;25.80;99.90
14119;DHT22;7138;49.246;9.100;2023-08-12T08:12:25;26.20;99.90
14119;DHT22;7138;49.246;9.100;2023-08-12T08:14:50;26.20;99.90
14119;DHT22;7138;49.246;9.100;2023-08-12T08:17:16;26.80;99.90
14119;DHT22;7138;49.246;9.100;2023-08-12T08:19:42;27.30;99.90
14119;DHT22;7138;49.246;9.100;2023-08-12T08:22:08;26.60;99.90
14119;DHT22;7138;49.246;9.100;2023-08-12T08:24:34;26.50;99.90
14119;DHT22;7138;49.246;9.100;2023-08-12T08:27:00;26.50;99.90
14119;DHT22;7138;49.246;9.100;2023-08-12T08:29:27;25.80;99.90
14119;DHT22;7138;49.246;9.100;2023-08-12T08:31:53;25.40;99.90
14119;DHT22;7138;49.246;9.100;2023-08-12T08:34:19;25.40;99.90
14119;DHT22;7138;49.246;9.100;2023-08-12T08:36:45;25.20;99.90
14119;DHT22;7138;49.246;9.100;2023-08-12T08:39:10;25.70;99.90
14119;DHT22;7138;49.246;9.100;2023-08-12T08:41:38;25.90;99.90
14119;DHT22;7138;49.246;9.100;2023-08-12T08:44:07;25.90;99.90
14119;DHT22;7138;49.246;9.100;2023-08-12T08:46:35;26.20;99.90
14119;DHT22;7138;49.246;9.100;2023-08-12T08:49:02;26.30;99.90
14119;DHT22;7138;49.246;9.100;2023-08-12T08:51:32;26.10;99.90
14119;DHT22;7138;49.246;9.100;2023-08-12T08:53:58;26.10;99.90
14119;DHT22;7138;49.246;9.100;2023-08-12T08:56:25;26.10;99.90
14119;DHT22;7138;49.246;9.100;2023-08-12T08:58:51;26.00;99.90
14119;DHT22;7138;49.246;9.100;2023-08-12T09:01:19;26.40;99.90
14119;DHT22;7138;49.246;9.100;2023-08-12T09:03:51;27.20;99.90
14119;DHT22;7138;49.246;9.100;2023-08-12T09:06:19;27.30;99.90
14119;DHT22;7138;49.246;9.100;2023-08-12T09:08:48;27.00;99.90
14119;DHT22;7138;49.246;9.100;2023-08-12T09:11:18;27.20;99.90
14119;DHT22;7138;49.246;9.100;2023-08-12T09:13:44;27.00;99.90
14119;DHT22;7138;49.246;9.100;2023-08-12T09:16:11;27.50;99.90
14119;DHT22;7138;49.246;9.100;2023-08-12T09:18:37;27.50;99.90
14119;DHT22;7138;49.246;9.100;2023-08-12T09:21:04;27.30;99.90
14119;DHT22;7138;49.246;9.100;2023-08-12T09:23:34;27.60;99.90
14119;DHT22;7138;49.246;9.100;2023-08-12T09:26:01;27.40;99.90
14119;DHT22;7138;49.246;9.100;2023-08-12T09:28:27;27.70;99.90
14119;DHT22;7138;49.246;9.100;2023-08-12T09:30:52;27.40;99.90
14119;DHT22;7138;49.246;9.100;2023-08-12T09:33:24;27.30;99.90
14119;DHT22;7138;49.246;9.100;2023-08-12T09:35:52;27.50;99.90
14119;DHT22;7138;49.246;9.100;2023-08-12T09:38:21;28.00;99.90
14119;DHT22;7138;49.246;9.100;2023-08-12T09:40:47;27.70;99.90
14119;DHT22;7138;49.246;9.100;2023-08-12T09:43:13;28.10;99.90
14119;DHT22;7138;49.246;9.100;2023-08-12T09:45:40;28.50;99.90
14119;DHT22;7138;49.246;9.100;2023-08-12T09:48:06;28.30;99.90
14119;DHT22;7138;49.246;9.100;2023-08-12T09:50:34;28.70;99.90
14119;DHT22;7138;49.246;9.100;2023-08-12T09:53:02;28.40;99.90
14119;DHT22;7138;49.246;9.100;2023-08-12T09:55:34;28.60;99.90
14119;DHT22;7138;49.246;9.100;2023-08-12T09:58:02;28.40;99.90
14119;DHT22;7138;49.246;9.100;2023-08-12T10:00:32;28.30;99.90
14119;DHT22;7138;49.246;9.100;2023-08-12T10:03:01;28.40;99.90
14119;DHT22;7138;49.246;9.100;2023-08-12T10:05:28;28.40;99.90
14119;DHT22;7138;49.246;9.100;2023-08-12T10:07:57;28.80;99.90
14119;DHT22;7138;49.246;9.100;2023-08-12T10:10:25;29.10;99.90
14119;DHT22;7138;49.246;9.100;2023-08-12T10:12:52;29.30;99.90
14119;DHT22;7138;49.246;9.100;2023-08-12T10:15:20;29.60;99.90
14119;DHT22;7138;49.246;9.100;2023-08-12T10:17:47;29.20;99.90
14119;DHT22;7138;49.246;9.100;2023-08-12T10:20:19;29.20;99.90
14119;DHT22;7138;49.246;9.100;2023-08-12T10:22:49;28.70;99.90
14119;DHT22;7138;49.246;9.100;2023-08-12T10:25:18;28.80;99.90
14119;DHT22;7138;49.246;9.100;2023-08-12T10:27:47;29.20;99.90
14119;DHT22;7138;49.246;9.100;2023-08-12T10:30:14;29.60;99.90
14119;DHT22;7138;49.246;9.100;2023-08-12T10:32:41;29.80;99.90
14119;DHT22;7138;49.246;9.100;2023-08-12T10:35:08;29.80;99.90
14119;DHT22;7138;49.246;9.100;2023-08-12T10:37:35;30.30;99.90
14119;DHT22;7138;49.246;9.100;2023-08-12T10:40:03;30.50;99.90
14119;DHT22;7138;49.246;9.100;2023-08-12T10:42:44;30.40;99.90
14119;DHT22;7138;49.246;9.100;2023-08-12T10:45:12;30.10;99.90
14119;DHT22;7138;49.246;9.100;2023-08-12T10:47:41;30.10;99.90
14119;DHT22;7138;49.246;9.100;2023-08-12T10:50:19;30.50;99.90
14119;DHT22;7138;49.246;9.100;2023-08-12T10:52:47;30.40;99.90
14119;DHT22;7138;49.246;9.100;2023-08-12T10:55:17;30.10;99.90
14119;DHT22;7138;49.246;9.100;2023-08-12T10:57:44;30.20;99.90
14119;DHT22;7138;49.246;9.100;2023-08-12T11:00:14;30.20;99.90
14119;DHT22;7138;49.246;9.100;2023-08-12T11:02:44;30.50;99.90
14119;DHT22;7138;49.246;9.100;2023-08-12T11:05:11;30.60;99.90
14119;DHT22;7138;49.246;9.100;2023-08-12T11:07:39;30.60;99.90
14119;DHT22;7138;49.246;9.100;2023-08-12T11:10:12;30.00;99.90
14119;DHT22;7138;49.246;9.100;2023-08-12T11:12:39;30.30;99.90
14119;DHT22;7138;49.246;9.100;2023-08-12T11:15:07;30.60;99.90
14119;DHT22;7138;49.246;9.100;2023-08-12T11:17:37;30.60;99.90
14119;DHT22;7138;49.246;9.100;2023-08-12T11:20:07;30.70;99.90
14119;DHT22;7138;49.246;9.100;2023-08-12T11:22:36;30.40;99.90
14119;DHT22;7138;49.246;9.100;2023-08-12T11:25:03;30.60;99.90
14119;DHT22;7138;49.246;9.100;2023-08-12T11:27:43;30.50;99.90
14119;DHT22;7138;49.246;9.100;2023-08-12T11:30:12;30.40;99.90
14119;DHT22;7138;49.246;9.100;2023-08-12T11:32:42;29.80;99.90
14119;DHT22;7138;49.246;9.100;2023-08-12T11:35:10;29.20;99.90
14119;DHT22;7138;49.246;9.100;2023-08-12T11:37:38;28.70;99.90
14119;DHT22;7138;49.246;9.100;2023-08-12T11:40:07;28.40;99.90
14119;DHT22;7138;49.246;9.100;2023-08-12T11:42:34;28.10;99.90
14119;DHT22;7138;49.246;9.100;2023-08-12T11:45:01;28.00;99.90
14119;DHT22;7138;49.246;9.100;2023-08-12T11:47:27;27.90;99.90
14119;DHT22;7138;49.246;9.100;2023-08-12T11:49:54;27.80;99.90
14119;DHT22;7138;49.246;9.100;2023-08-12T11:52:20;27.90;99.90
14119;DHT22;7138;49.246;9.100;2023-08-12T11:54:48;27.80;99.90
14119;DHT22;7138;49.246;9.100;2023-08-12T11:57:15;27.80;99.90
14119;DHT22;7138;49.246;9.100;2023-08-12T11:59:41;27.60;99.90
14119;DHT22;7138;49.246;9.100;2023-08-12T12:02:07;27.60;99.90
14119;DHT22;7138;49.246;9.100;2023-08-12T12:04:33;27.40;99.90
14119;DHT22;7138;49.246;9.100;2023-08-12T12:07:01;27.20;99.90
14119;DHT22;7138;49.246;9.100;2023-08-12T12:09:31;26.90;99.90
14119;DHT22;7138;49.246;9.100;2023-08-12T12:11:57;26.60;99.90
14119;DHT22;7138;49.246;9.100;2023-08-12T12:14:25;26.20;99.90
14119;DHT22;7138;49.246;9.100;2023-08-12T12:16:51;26.00;99.90
14119;DHT22;7138;49.246;9.100;2023-08-12T12:19:18;26.00;99.90
14119;DHT22;7138;49.246;9.100;2023-08-12T12:21:46;26.00;99.90
14119;DHT22;7138;49.246;9.100;2023-08-12T12:24:15;26.10;99.90
14119;DHT22;7138;49.246;9.100;2023-08-12T12:26:42;26.00;99.90
14119;DHT22;7138;49.246;9.100;2023-08-12T12:29:08;25.90;99.90
14119;DHT22;7138;49.246;9.100;2023-08-12T12:31:37;26.00;99.90
14119;DHT22;7138;49.246;9.100;2023-08-12T12:34:03;26.00;99.90
14119;DHT22;7138;49.246;9.100;2023-08-12T12:36:30;26.00;99.90
14119;DHT22;7138;49.246;9.100;2023-08-12T12:38:56;26.00;99.90
14119;DHT22;7138;49.246;9.100;2023-08-12T12:41:23;26.30;99.90
14119;DHT22;7138;49.246;9.100;2023-08-12T12:43:49;26.60;99.90
14119;DHT22;7138;49.246;9.100;2023-08-12T12:46:15;26.50;99.90
14119;DHT22;7138;49.246;9.100;2023-08-12T12:48:41;26.60;99.90
14119;DHT22;7138;49.246;9.100;2023-08-12T12:51:07;26.60;99.90
14119;DHT22;7138;49.246;9.100;2023-08-12T12:53:33;26.80;99.90
14119;DHT22;7138;49.246;9.100;2023-08-12T12:55:59;27.10;99.90
14119;DHT22;7138;49.246;9.100;2023-08-12T12:58:30;27.00;99.90
14119;DHT22;7138;49.246;9.100;2023-08-12T13:00:56;27.30;99.90
14119;DHT22;7138;49.246;9.100;2023-08-12T13:03:22;26.80;99.90
14119;DHT22;7138;49.246;9.100;2023-08-12T13:05:49;26.60;99.90
14119;DHT22;7138;49.246;9.100;2023-08-12T13:08:16;26.50;99.90
14119;DHT22;7138;49.246;9.100;2023-08-12T13:10:41;26.40;99.90
14119;DHT22;7138;49.246;9.100;2023-08-12T13:13:07;26.30;99.90
14119;DHT22;7138;49.246;9.100;2023-08-12T13:15:35;26.00;99.90
14119;DHT22;7138;49.246;9.100;2023-08-12T13:18:01;25.80;99.90
14119;DHT22;7138;49.246;9.100;2023-08-12T13:20:28;25.90;99.90
14119;DHT22;7138;49.246;9.100;2023-08-12T13:22:54;25.90;99.90
14119;DHT22;7138;49.246;9.100;2023-08-12T13:25:20;25.90;99.90
14119;DHT22;7138;49.246;9.100;2023-08-12T13:27:46;26.20;99.90
14119;DHT22;7138;49.246;9.100;2023-08-12T13:30:12;26.00;99.90
14119;DHT22;7138;49.246;9.100;2023-08-12T13:32:39;25.80;99.90
14119;DHT22;7138;49.246;9.100;2023-08-12T13:35:05;25.80;99.90
14119;DHT22;7138;49.246;9.100;2023-08-12T13:37:32;25.60;99.90
14119;DHT22;7138;49.246;9.100;2023-08-12T13:39:58;25.60;99.90
14119;DHT22;7138;49.246;9.100;2023-08-12T13:42:24;25.70;99.90
14119;DHT22;7138;49.246;9.100;2023-08-12T13:44:49;26.10;99.90
14119;DHT22;7138;49.246;9.100;2023-08-12T13:47:15;26.30;99.90
14119;DHT22;7138;49.246;9.100;2023-08-12T13:49:42;26.40;99.90
14119;DHT22;7138;49.246;9.100;2023-08-12T13:52:08;26.30;99.90
14119;DHT22;7138;49.246;9.100;2023-08-12T13:54:34;26.70;99.90
14119;DHT22;7138;49.246;9.100;2023-08-12T13:57:00;26.70;99.90
14119;DHT22;7138;49.246;9.100;2023-08-12T13:59:26;26.80;99.90
14119;DHT22;7138;49.246;9.100;2023-08-12T14:01:51;26.60;99.90
14119;DHT22;7138;49.246;9.100;2023-08-12T14:04:17;26.90;99.90
14119;DHT22;7138;49.246;9.100;2023-08-12T14:06:46;27.00;99.90
14119;DHT22;7138;49.246;9.100;2023-08-12T14:09:12;27.00;99.90
14119;DHT22;7138;49.246;9.100;2023-08-12T14:11:39;27.30;99.90
14119;DHT22;7138;49.246;9.100;2023-08-12T14:14:05;27.50;99.90
14119;DHT22;7138;49.246;9.100;2023-08-12T14:16:31;27.40;99.90
14119;DHT22;7138;49.246;9.100;2023-08-12T14:18:57;27.20;99.90
14119;DHT22;7138;49.246;9.100;2023-08-12T14:21:23;27.10;99.90
14119;DHT22;7138;49.246;9.100;2023-08-12T14:23:50;27.10;99.90
14119;DHT22;7138;49.246;9.100;2023-08-12T14:26:16;26.90;99.90
14119;DHT22;7138;49.246;9.100;2023-08-12T14:28:42;26.60;99.90
14119;DHT22;7138;49.246;9.100;2023-08-12T14:31:08;26.40;99.90
14119;DHT22;7138;49.246;9.100;2023-08-12T14:33:34;26.40;99.90
14119;DHT22;7138;49.246;9.100;2023-08-12T14:36:00;26.60;99.90
14119;DHT22;7138;49.246;9.100;2023-08-12T14:38:26;26.40;99.90
14119;DHT22;7138;49.246;9.100;2023-08-12T14:40:53;26.40;99.90
14119;DHT22;7138;49.246;9.100;2023-08-12T14:43:19;26.50;99.90
14119;DHT22;7138;49.246;9.100;2023-08-12T14:45:45;26.60;99.90
14119;DHT22;7138;49.246;9.100;2023-08-12T14:48:14;26.60;99.90
14119;DHT22;7138;49.246;9.100;2023-08-12T14:50:43;26.40;99.90
14119;DHT22;7138;49.246;9.100;2023-08-12T14:53:10;26.20;99.90
14119;DHT22;7138;49.246;9.100;2023-08-12T14:55:36;26.10;99.90
14119;DHT22;7138;49.246;9.100;2023-08-12T14:58:03;25.90;99.90
14119;DHT22;7138;49.246;9.100;2023-08-12T15:00:29;25.80;99.90
14119;DHT22;7138;49.246;9.100;2023-08-12T15:02:56;25.60;99.90
14119;DHT22;7138;49.246;9.100;2023-08-12T15:05:21;25.60;99.90
14119;DHT22;7138;49.246;9.100;2023-08-12T15:07:47;25.60;99.90
14119;DHT22;7138;49.246;9.100;2023-08-12T15:10:13;25.40;99.90
14119;DHT22;7138;49.246;9.100;2023-08-12T15:12:39;25.40;99.90
14119;DHT22;7138;49.246;9.100;2023-08-12T15:15:06;25.00;99.90
14119;DHT22;7138;49.246;9.100;2023-08-12T15:17:33;24.70;99.90
14119;DHT22;7138;49.246;9.100;2023-08-12T15:19:58;24.50;99.90
14119;DHT22;7138;49.246;9.100;2023-08-12T15:22:24;24.20;99.90
14119;DHT22;7138;49.246;9.100;2023-08-12T15:24:50;24.00;99.90
14119;DHT22;7138;49.246;9.100;2023-08-12T15:27:18;23.70;99.90
14119;DHT22;7138;49.246;9.100;2023-08-12T15:29:44;23.30;99.90
14119;DHT22;7138;49.246;9.100;2023-08-12T15:32:11;23.00;99.90
14119;DHT22;7138;49.246;9.100;2023-08-12T15:34:37;22.70;99.90
14119;DHT22;7138;49.246;9.100;2023-08-12T15:37:03;22.60;99.90
14119;DHT22;7138;49.246;9.100;2023-08-12T15:39:29;22.50;99.90
14119;DHT22;7138;49.246;9.100;2023-08-12T15:41:55;22.40;99.90